Overview Statistics Trail Chart Weather Telemetry Raw packets
 

This is the latest recevied weather packets stored in our database for station/object IW1RID-3. If no packets are shown the sender has not sent any weather packets the latest 10 day(s).

<< 19 20 21 22 23 24 25 >>
Time Temp. Humidity Pressure Rain* Wind** Luminosity Snow
1788031277 23.33° C 65% 1070.9 hPa - - - -
1788030072 23.89° C 66% 1070.8 hPa - - - -
1788028866 24.44° C 64% 1070.4 hPa - - - -
1788027662 25.56° C 64% 1070.2 hPa - - - -
1788026457 26.67° C 64% 1070 hPa - - - -
1788025252 27.78° C 61% 1069.9 hPa - - - -
1788024047 28.89° C 59% 1069.9 hPa - - - -
1788022842 30° C 54% 1070.4 hPa - - - -
1788021637 31.11° C 52% 1070.5 hPa - - - -
1788020432 31.11° C 50% 1070.6 hPa - - - -
1788019228 31.11° C 48% 1070.7 hPa - - - -
1788018022 33.33° C 41% 1070.8 hPa - - - -
1788016817 33.33° C 41% 1070.9 hPa - - - -
1788015613 33.33° C 44% 1071.1 hPa - - - -
1788014407 31.67° C 47% 1071.3 hPa - - - -
1788013204 32.22° C 45% 1071.4 hPa - - - -
1788011998 32.22° C 44% 1071.5 hPa - - - -
1788010791 30.56° C 45% 1071.7 hPa - - - -
1788008381 30° C 47% 1071.5 hPa - - - -
1788005972 28.89° C 46% 1071.7 hPa - - - -
1788004767 30° C 44% 1071.9 hPa - - - -
1788003562 28.89° C 45% 1071.7 hPa - - - -
1788002358 28.33° C 49% 1072 hPa - - - -
1788001153 27.78° C 55% 1072.2 hPa - - - -
1787999948 28.33° C 48% 1072.1 hPa - - - -

* Rain since midnight (hover to see other rain measurements)
** Current wind speed in m/s (hover to see current wind gust speed)